Rogers, CT (06263)

10:38 AM EST on December 07, 2016 (GMT -0500)
| | Change Station

Elev -9999 ft 0.00 °N, 0.00 °E | Updated

Mostly Cloudy
Mostly Cloudy
72 °F
Feels Like 72 °F
N
5
Wind Variable Wind from South
Gusts mph

Today
High -- | Low -- °F
--% Chance of Precip.
Yesterday
High -- | Low -- °F
Precip. -- in
Pressure 30.00 in
Visibility 10.0 miles
Clouds Mostly Cloudy 800 ft
Overcast 1200 ft
Dew Point 58 °F
Humidity 61%
Rainfall --
Snow Depth Not available.
7:01 AM 4:16 PM
First Quarter, 53% visible
SPECI KIJD 071527Z AUTO 00000KT 10SM BKN008 OVC012 05/03 A3000 RMK AO2 CIG 006V010 T00500033
Pressure 30.00 in
Visibility 10.0 miles
Clouds Mostly Cloudy 800 ft
Overcast 1200 ft
Dew Point 58 °F
Humidity 61%
Rainfall --
Snow Depth Not available.
7:01 AM 4:16 PM
First Quarter, 53% visible
SPECI KIJD 071527Z AUTO 00000KT 10SM BKN008 OVC012 05/03 A3000 RMK AO2 CIG 006V010 T00500033

10-Day Weather Forecast

Almanac

Astronomy

Dec. 07, 2016 Rise Set
Actual Time
Civil Twilight
Nautical Twilight
Astronomical Twilight
Moon
Length of Visible Light
Length of Day
Tomorrow will be .
, % of the Moon is Illuminated

Today's Extremes

State Highs State Lows

Community

WunderPhotos

Upload Photos

1,956,114 photos uploaded!

WunderBlog® & News

Nearby

Air Quality

  Air Quality AQ Index Pollutant
Not available.

Snow Depth

Station Depth Elevation

Earthquake Activity

City Distance Mag. Time & Date
Minimum magnitude displayed is 2.5.

Coastal Water Temperatures

Place Temperature

Stations

Nearby Weather Stations

Station Location Temp. Windchill Dew Point Humidity Wind Precip. Elev Updated Type
                   

Watches & Warnings

There are currently no watches in effect.